Time;durP1;ratioP1;P1;durP2;ratioP2;P2;SDS_P1;SDS_P2;PMS_P1;PMS_P2;Temp;Humidity;BMP_temperature;BMP_pressure;BME280_temperature;BME280_humidity;BME280_pressure;Samples;Min_cycle;Max_cycle;Signal;HPM_P1;HPM_P2
2023/07/23 00:00:35;;;;;;;27.13;19.02;;;14.40;99.90;;;14.34;100.00;100101.88;4982425;28;20042;-80
2023/07/23 00:03:02;;;;;;;25.58;17.88;;;14.40;99.90;;;14.35;100.00;100100.78;4987536;28;20045;-80
2023/07/23 00:05:27;;;;;;;27.60;18.73;;;14.40;99.90;;;14.33;100.00;100086.50;4982763;28;20112;-80
2023/07/23 00:07:59;;;;;;;30.92;20.27;;;14.40;99.90;;;14.45;100.00;100089.06;4988610;28;20105;-81
2023/07/23 00:10:25;;;;;;;29.27;20.02;;;14.40;99.90;;;14.44;100.00;100069.06;4991758;28;20128;-81
2023/07/23 00:12:52;;;;;;;29.15;18.88;;;14.40;99.90;;;14.41;100.00;100072.31;4992841;28;20034;-80
2023/07/23 00:15:19;;;;;;;27.15;19.08;;;14.40;99.90;;;14.45;100.00;100067.97;4990043;28;20053;-81
2023/07/23 00:17:45;;;;;;;29.67;19.40;;;14.30;99.90;;;14.53;100.00;100073.00;4984074;28;20038;-81
2023/07/23 00:20:12;;;;;;;29.08;18.98;;;14.30;99.90;;;14.41;100.00;100063.25;4983069;28;20086;-81
2023/07/23 00:22:39;;;;;;;28.02;19.55;;;14.30;99.90;;;14.45;100.00;100067.97;4986125;28;20038;-81
2023/07/23 00:25:06;;;;;;;32.30;18.90;;;14.30;99.90;;;14.58;100.00;100076.88;4988731;28;20053;-81
2023/07/23 00:27:32;;;;;;;28.23;18.90;;;14.30;99.90;;;14.51;100.00;100071.59;4989700;28;20449;-82
2023/07/23 00:29:59;;;;;;;28.93;19.07;;;14.30;99.90;;;14.31;100.00;100072.16;4983424;28;20232;-81
2023/07/23 00:32:25;;;;;;;28.88;18.60;;;14.30;99.90;;;14.29;100.00;100064.22;4995608;28;20035;-81
2023/07/23 00:34:51;;;;;;;27.88;19.15;;;14.30;99.90;;;14.17;100.00;100060.75;4991778;28;20037;-80
2023/07/23 00:37:16;;;;;;;24.58;17.58;;;14.20;99.90;;;14.20;100.00;100054.78;5000670;28;20062;-81
2023/07/23 00:39:42;;;;;;;31.58;18.45;;;14.20;99.90;;;14.21;100.00;100049.03;4978489;28;20038;-80
2023/07/23 00:42:08;;;;;;;28.80;18.40;;;14.20;99.90;;;14.31;100.00;100029.13;4981631;28;20434;-80
2023/07/23 00:44:34;;;;;;;28.15;19.45;;;14.20;99.90;;;14.18;100.00;100026.75;4989803;28;20041;-80
2023/07/23 00:47:05;;;;;;;30.05;18.85;;;14.30;99.90;;;14.23;100.00;100026.84;4990573;28;20430;-81
2023/07/23 00:49:31;;;;;;;33.13;20.05;;;14.20;99.90;;;14.24;100.00;100012.84;4978194;28;20058;-80
2023/07/23 00:51:58;;;;;;;30.58;20.23;;;14.20;99.90;;;14.20;100.00;100010.91;4991659;28;20034;-80
2023/07/23 00:54:24;;;;;;;30.13;20.80;;;14.20;99.90;;;14.23;100.00;100010.38;4991071;28;20042;-81
2023/07/23 00:56:50;;;;;;;30.48;19.27;;;14.20;99.90;;;14.38;100.00;100005.03;4991928;28;20038;-80
2023/07/23 00:59:18;;;;;;;31.27;19.02;;;14.20;99.90;;;14.24;100.00;100007.34;5013551;28;20028;-80
2023/07/23 01:01:44;;;;;;;29.08;19.02;;;14.20;99.90;;;14.21;100.00;100001.56;5019242;28;20155;-80
2023/07/23 01:04:09;;;;;;;27.92;19.35;;;14.20;99.90;;;14.16;100.00;99990.53;5011460;28;20046;-81
2023/07/23 01:06:39;;;;;;;30.52;19.63;;;14.20;99.90;;;14.16;100.00;99985.03;5015018;28;20065;-81
2023/07/23 01:09:06;;;;;;;30.90;18.75;;;14.20;99.90;;;14.08;100.00;99978.94;5004212;28;20050;-81
2023/07/23 01:11:34;;;;;;;28.15;17.30;;;14.10;99.90;;;14.23;100.00;99981.00;5005914;28;20049;-79
2023/07/23 01:14:05;;;;;;;30.10;17.67;;;14.20;99.90;;;14.09;100.00;99982.53;5003678;28;20041;-80
2023/07/23 01:16:31;;;;;;;27.90;18.67;;;14.10;99.90;;;14.15;100.00;99977.91;5008876;28;20015;-82
2023/07/23 01:18:59;;;;;;;25.90;18.05;;;14.20;99.90;;;14.12;100.00;99979.25;5013387;28;20050;-81
2023/07/23 01:21:27;;;;;;;29.15;18.67;;;14.10;99.90;;;14.28;100.00;99971.19;5008893;28;20406;-82
2023/07/23 01:23:53;;;;;;;25.77;18.30;;;14.20;99.90;;;14.19;100.00;99971.66;4995701;28;20073;-81
2023/07/23 01:26:20;;;;;;;30.08;20.60;;;14.10;99.90;;;14.32;100.00;99977.81;4981586;28;20517;-82
2023/07/23 01:28:46;;;;;;;30.13;20.13;;;14.20;99.90;;;14.14;100.00;99976.25;4974373;28;20042;-81
2023/07/23 01:31:12;;;;;;;33.13;20.58;;;14.20;99.90;;;14.10;100.00;99970.47;4989542;28;20045;-82
2023/07/23 01:33:41;;;;;;;29.77;20.77;;;14.20;99.90;;;14.15;100.00;99972.41;4979701;28;20517;-82
2023/07/23 01:36:09;;;;;;;30.08;21.05;;;14.20;99.90;;;14.06;100.00;99956.41;4982207;28;20042;-80
2023/07/23 01:38:35;;;;;;;29.33;20.63;;;14.20;99.90;;;14.08;100.00;99964.41;4983184;28;20069;-80
2023/07/23 01:41:02;;;;;;;31.58;21.63;;;14.20;99.90;;;14.30;100.00;99958.88;4984686;28;20038;-82
2023/07/23 01:43:28;;;;;;;33.95;20.60;;;14.20;99.90;;;14.08;100.00;99950.69;4977856;28;20035;-82
2023/07/23 01:45:54;;;;;;;31.27;20.75;;;14.20;99.90;;;13.98;100.00;99951.41;4979081;28;20058;-82
2023/07/23 01:48:25;;;;;;;29.17;20.95;;;14.20;99.90;;;13.88;100.00;99923.84;4984468;28;20041;-82
2023/07/23 01:50:51;;;;;;;30.95;21.23;;;14.20;99.90;;;14.00;100.00;99912.75;4962098;28;20045;-80
2023/07/23 01:53:17;;;;;;;31.25;20.65;;;14.20;99.90;;;14.05;100.00;99910.03;4974366;28;20138;-82
2023/07/23 01:55:42;;;;;;;29.90;21.02;;;14.20;99.90;;;14.16;100.00;99906.34;4998318;28;20054;-82
2023/07/23 01:58:08;;;;;;;32.10;22.17;;;14.20;99.90;;;14.15;100.00;99909.31;4979716;28;20039;-82
2023/07/23 02:00:34;;;;;;;32.40;21.15;;;14.20;99.90;;;14.17;100.00;99910.75;4994663;28;20043;-82
2023/07/23 02:02:59;;;;;;;31.15;21.35;;;14.20;99.90;;;14.10;100.00;99901.91;4985106;28;20038;-82
2023/07/23 02:05:26;;;;;;;29.60;20.65;;;14.20;99.90;;;14.04;100.00;99898.25;4989891;28;20504;-82
2023/07/23 02:07:51;;;;;;;29.52;20.23;;;14.20;99.90;;;14.08;100.00;99885.69;4980925;28;20105;-81
2023/07/23 02:10:19;;;;;;;30.50;20.98;;;14.20;99.90;;;14.10;100.00;99888.19;4990703;28;20047;-81
2023/07/23 02:12:46;;;;;;;28.75;20.48;;;14.30;99.90;;;14.10;100.00;99891.72;5000711;28;20034;-82
2023/07/23 02:15:12;;;;;;;30.60;20.60;;;14.30;99.90;;;14.02;100.00;99883.97;4972973;28;20042;-81
2023/07/23 02:17:38;;;;;;;28.52;19.95;;;14.20;99.90;;;14.06;100.00;99879.63;5004390;28;20030;-83
2023/07/23 02:20:06;;;;;;;32.47;20.60;;;14.20;99.90;;;14.13;100.00;99895.88;4982296;28;20035;-82
2023/07/23 02:22:34;;;;;;;31.45;21.20;;;14.20;99.90;;;14.00;100.00;99893.53;4983426;28;20031;-82
2023/07/23 02:25:00;;;;;;;33.80;20.75;;;14.20;99.90;;;13.97;100.00;99885.84;4988901;28;20038;-83
2023/07/23 02:27:26;;;;;;;33.00;20.02;;;14.20;99.90;;;14.16;100.00;99878.91;4982885;28;20085;-83
2023/07/23 02:29:51;;;;;;;29.90;18.70;;;14.20;99.90;;;14.09;100.00;99879.09;4994303;28;20052;-83
2023/07/23 02:32:17;;;;;;;29.48;19.98;;;14.20;99.90;;;14.13;100.00;99873.94;4982507;28;20039;-83
2023/07/23 02:34:43;;;;;;;28.42;19.63;;;14.20;99.90;;;14.09;100.00;99878.31;4977192;28;20035;-85
2023/07/23 02:37:08;;;;;;;29.98;20.15;;;14.30;99.90;;;14.24;100.00;99872.94;4987116;28;20046;-82
2023/07/23 02:39:34;;;;;;;31.05;20.58;;;14.20;99.90;;;14.09;100.00;99879.09;4978234;28;20046;-82
2023/07/23 02:42:00;;;;;;;31.15;20.90;;;14.20;99.90;;;14.07;100.00;99875.00;4984280;28;20062;-83
2023/07/23 02:44:26;;;;;;;35.05;21.75;;;14.30;99.90;;;14.38;100.00;99869.78;4984101;28;20031;-82
2023/07/23 02:46:52;;;;;;;33.05;22.25;;;14.20;99.90;;;14.33;100.00;99873.31;4994787;28;20628;-83
2023/07/23 02:49:17;;;;;;;35.10;23.20;;;14.20;99.90;;;14.24;100.00;99880.34;4994311;28;20042;-83
2023/07/23 02:51:43;;;;;;;34.88;23.50;;;14.20;99.90;;;14.17;100.00;99863.25;4961304;28;20057;-83
2023/07/23 02:54:09;;;;;;;34.55;22.90;;;14.20;99.90;;;14.27;100.00;99877.09;4993850;28;20095;-85
2023/07/23 02:56:35;;;;;;;39.03;23.38;;;14.20;99.90;;;14.13;100.00;99857.50;4993298;28;20042;-84
2023/07/23 02:59:03;;;;;;;37.22;24.45;;;14.20;99.90;;;14.38;100.00;99858.81;5004920;28;20122;-86
2023/07/23 03:01:30;;;;;;;38.53;24.45;;;14.20;99.90;;;14.41;100.00;99854.69;5000457;28;20069;-85
2023/07/23 03:03:56;;;;;;;41.70;24.42;;;14.20;99.90;;;14.16;100.00;99862.44;5008200;28;20062;-85
2023/07/23 03:06:22;;;;;;;40.28;24.95;;;14.10;99.90;;;14.08;100.00;99850.03;5009452;28;20080;-86
2023/07/23 03:08:47;;;;;;;38.67;24.77;;;14.20;99.90;;;14.18;100.00;99849.31;4997031;28;20042;-86
2023/07/23 03:11:13;;;;;;;39.33;24.90;;;14.10;99.90;;;14.12;100.00;99833.91;5005658;28;20034;-85
2023/07/23 03:13:39;;;;;;;43.35;26.63;;;14.10;99.90;;;14.00;100.00;99827.72;4984644;28;20047;-85
2023/07/23 03:16:05;;;;;;;42.97;26.60;;;14.10;99.90;;;14.19;100.00;99830.91;4989112;28;20033;-86
2023/07/23 03:18:31;;;;;;;43.58;27.75;;;14.10;99.90;;;14.24;100.00;99831.78;5000425;28;20038;-87
2023/07/23 03:20:57;;;;;;;44.85;26.67;;;14.10;99.90;;;14.35;100.00;99837.38;4992513;28;20398;-84
2023/07/23 03:23:23;;;;;;;39.38;26.83;;;14.10;99.90;;;14.23;100.00;99843.03;4987749;28;20125;-84
2023/07/23 03:25:48;;;;;;;39.40;27.05;;;14.10;99.90;;;14.17;100.00;99842.16;4988237;28;20031;-84
2023/07/23 03:28:15;;;;;;;43.90;26.35;;;14.10;99.90;;;14.20;100.00;99835.34;4992362;28;20039;-84
2023/07/23 03:30:40;;;;;;;43.60;27.50;;;14.10;99.90;;;14.06;100.00;99822.03;4992711;28;20192;-84
2023/07/23 03:33:06;;;;;;;44.42;28.05;;;14.10;99.90;;;14.05;100.00;99819.53;4988205;28;20058;-84
2023/07/23 03:35:32;;;;;;;44.78;27.60;;;14.10;99.90;;;14.13;100.00;99815.50;4993593;28;20088;-85
2023/07/23 03:37:58;;;;;;;44.72;27.25;;;14.10;99.90;;;14.19;100.00;99807.06;4991161;28;20039;-82
2023/07/23 03:40:24;;;;;;;43.20;26.65;;;14.20;99.90;;;14.22;100.00;99800.25;4985220;28;20043;-82
2023/07/23 03:42:49;;;;;;;44.00;27.30;;;14.10;99.90;;;14.03;100.00;99777.84;4988250;28;20367;-85
2023/07/23 03:45:15;;;;;;;43.95;27.27;;;14.10;99.90;;;14.32;100.00;99802.22;4977721;28;20394;-85
2023/07/23 03:47:41;;;;;;;40.47;25.27;;;14.10;99.90;;;14.31;100.00;99834.31;4990454;28;20057;-85
2023/07/23 03:50:08;;;;;;;39.58;25.65;;;14.10;99.90;;;14.31;100.00;99830.75;4999950;28;20038;-84
2023/07/23 03:52:34;;;;;;;34.90;24.10;;;14.10;99.90;;;14.34;100.00;99839.28;4982343;28;20027;-82
2023/07/23 03:55:00;;;;;;;36.13;24.98;;;14.20;99.90;;;14.41;100.00;99844.56;4989731;28;20039;-84
2023/07/23 03:57:26;;;;;;;37.75;24.25;;;14.20;99.90;;;14.35;100.00;99837.38;4990043;28;20042;-83
2023/07/23 03:59:52;;;;;;;35.30;23.10;;;14.10;99.90;;;14.50;100.00;99845.72;4992345;28;20042;-83
2023/07/23 04:02:18;;;;;;;40.90;24.88;;;14.20;99.90;;;14.39;100.00;99852.22;4992816;28;20038;-85
2023/07/23 04:04:43;;;;;;;38.15;25.33;;;14.20;99.90;;;14.45;100.00;99833.88;4992584;28;20038;-81
2023/07/23 04:07:09;;;;;;;41.30;25.67;;;14.20;99.90;;;14.10;100.00;99816.88;4984334;28;20037;-86
2023/07/23 04:09:35;;;;;;;43.20;26.00;;;14.30;99.90;;;14.07;100.00;99800.94;4984196;28;20445;-85
2023/07/23 04:12:02;;;;;;;42.03;25.58;;;14.20;99.90;;;14.17;100.00;99792.78;4993799;28;20122;-83
2023/07/23 04:14:28;;;;;;;36.95;26.15;;;14.20;99.90;;;14.13;100.00;99777.94;4977461;28;20438;-85
2023/07/23 04:16:55;;;;;;;43.50;25.88;;;14.30;99.90;;;14.26;100.00;99778.59;4993018;28;20061;-86
2023/07/23 04:19:21;;;;;;;38.33;24.08;;;14.30;99.90;;;14.27;100.00;99782.97;4993590;28;20121;-81
2023/07/23 04:21:47;;;;;;;37.28;24.63;;;14.30;99.90;;;14.28;100.00;99787.38;4988646;28;20030;-87
2023/07/23 04:24:13;;;;;;;35.60;23.40;;;14.30;99.90;;;14.28;100.00;99773.66;4986913;28;20446;-85
2023/07/23 04:26:39;;;;;;;33.65;21.25;;;14.30;99.90;;;14.45;100.00;99793.53;4979854;28;20125;-85
2023/07/23 04:29:05;;;;;;;33.60;22.00;;;14.40;99.90;;;14.46;100.00;99795.19;4988127;28;20065;-81
2023/07/23 04:31:31;;;;;;;29.90;20.52;;;14.40;99.90;;;14.61;100.00;99810.94;4986873;28;20027;-86
2023/07/23 04:33:58;;;;;;;30.17;20.67;;;14.40;99.90;;;14.45;100.00;99822.88;4986775;28;20065;-84
2023/07/23 04:36:24;;;;;;;29.23;19.03;;;14.40;99.90;;;14.43;100.00;99817.69;4992610;28;20070;-82
2023/07/23 04:38:50;;;;;;;29.05;18.75;;;14.40;99.90;;;14.39;100.00;99811.88;4981723;28;20085;-81
2023/07/23 04:41:16;;;;;;;29.63;18.00;;;14.50;99.90;;;14.67;100.00;99822.78;4986329;28;20537;-82
2023/07/23 04:43:42;;;;;;;24.90;15.90;;;14.50;99.90;;;14.66;100.00;99848.59;5003298;28;20073;-83
2023/07/23 04:46:08;;;;;;;22.88;15.70;;;14.50;99.90;;;14.55;100.00;99868.81;4988353;28;20149;-82
2023/07/23 04:48:36;;;;;;;21.20;14.93;;;14.60;99.90;;;14.59;100.00;99880.94;4986502;28;20088;-83
2023/07/23 04:51:06;;;;;;;21.42;15.23;;;14.60;99.90;;;14.68;100.00;99871.91;4985187;28;20030;-82
2023/07/23 04:53:33;;;;;;;23.52;15.75;;;14.70;99.90;;;14.72;100.00;99886.00;4990054;28;20046;-81
2023/07/23 04:56:01;;;;;;;22.45;14.48;;;14.60;99.90;;;14.69;100.00;99897.47;4992295;28;20768;-82
2023/07/23 04:58:27;;;;;;;21.70;13.35;;;14.70;99.90;;;14.94;100.00;99909.75;4991674;28;20084;-80
2023/07/23 05:00:53;;;;;;;21.05;13.63;;;14.70;99.90;;;15.09;100.00;99925.53;4990707;28;20034;-82
2023/07/23 05:03:19;;;;;;;21.70;13.18;;;14.80;99.90;;;14.80;100.00;99921.19;4987962;28;20426;-81
2023/07/23 05:05:51;;;;;;;24.70;14.00;;;14.80;99.90;;;14.81;100.00;99920.09;4987622;28;20387;-80
2023/07/23 05:08:19;;;;;;;20.85;12.38;;;14.80;99.90;;;14.92;100.00;99933.91;4990443;28;21011;-81
2023/07/23 05:10:45;;;;;;;17.70;12.07;;;14.90;99.90;;;14.92;100.00;99926.50;4983981;28;20463;-80
2023/07/23 05:13:13;;;;;;;18.92;11.98;;;14.80;99.90;;;15.18;100.00;99934.09;4992146;28;20030;-80
2023/07/23 05:15:39;;;;;;;17.95;12.57;;;15.00;99.90;;;15.15;100.00;99934.63;5006126;28;20045;-80
2023/07/23 05:18:04;;;;;;;19.80;11.45;;;15.00;99.90;;;15.04;100.00;99939.22;5006222;28;20077;-81
2023/07/23 05:20:30;;;;;;;21.30;11.77;;;15.10;99.90;;;15.19;100.00;99939.31;4986314;28;20510;-80
2023/07/23 05:22:56;;;;;;;17.17;11.10;;;15.10;99.90;;;15.17;100.00;99949.75;4991120;28;20039;-80
2023/07/23 05:25:22;;;;;;;18.17;10.95;;;15.10;99.90;;;15.14;100.00;99960.44;4991884;28;20049;-79
2023/07/23 05:27:51;;;;;;;18.95;10.65;;;15.10;99.90;;;15.15;100.00;99951.13;4987767;28;20046;-79
2023/07/23 05:30:17;;;;;;;17.00;10.40;;;15.10;99.90;;;15.25;100.00;99962.16;4991271;28;20042;-80
2023/07/23 05:32:44;;;;;;;14.57;9.90;;;15.10;99.90;;;15.30;100.00;99964.94;4987280;28;20049;-80
2023/07/23 05:35:12;;;;;;;13.93;9.77;;;15.10;99.90;;;15.30;100.00;99962.19;4988492;28;20038;-80
2023/07/23 05:37:38;;;;;;;12.98;9.43;;;15.10;99.90;;;15.09;100.00;99947.50;4989554;28;20038;-79
2023/07/23 05:40:05;;;;;;;16.40;9.30;;;15.10;99.90;;;15.53;100.00;99952.72;4997506;28;20081;-79
2023/07/23 05:42:31;;;;;;;16.23;9.80;;;15.20;99.90;;;15.33;100.00;99947.09;4983121;28;20049;-79
2023/07/23 05:44:57;;;;;;;13.98;9.20;;;15.10;99.90;;;15.41;100.00;99948.53;4981494;28;20051;-78
2023/07/23 05:47:23;;;;;;;16.30;9.32;;;15.20;99.90;;;15.64;100.00;99950.00;4992175;28;20053;-78
2023/07/23 05:49:49;;;;;;;14.80;9.52;;;15.30;99.90;;;15.79;100.00;99952.84;4989905;28;20038;-78
2023/07/23 05:52:15;;;;;;;17.70;10.35;;;15.40;99.90;;;15.95;100.00;99945.50;4995154;28;20034;-79
2023/07/23 05:54:40;;;;;;;16.45;10.02;;;15.50;99.90;;;16.14;100.00;99949.66;4996070;28;20039;-79
2023/07/23 05:57:06;;;;;;;16.73;9.27;;;15.70;99.90;;;16.19;100.00;99950.50;5000346;28;20177;-78
2023/07/23 05:59:32;;;;;;;14.57;8.85;;;15.80;99.90;;;16.35;100.00;99964.28;5001747;28;20469;-78
2023/07/23 06:01:58;;;;;;;16.35;7.85;;;16.00;99.90;;;16.51;100.00;99968.72;4996336;28;20061;-78
2023/07/23 06:04:23;;;;;;;11.52;8.52;;;16.10;99.90;;;16.60;100.00;99973.69;4999858;28;20050;-77
2023/07/23 06:06:50;;;;;;;14.63;8.55;;;16.30;99.90;;;16.72;100.00;99970.69;4990733;28;20038;-78
2023/07/23 06:09:19;;;;;;;13.80;7.17;;;16.40;99.90;;;16.69;100.00;99977.53;4986615;28;20124;-78
2023/07/23 06:11:45;;;;;;;14.05;7.63;;;16.50;99.90;;;16.73;100.00;99984.19;4986575;28;20046;-77
2023/07/23 06:14:11;;;;;;;14.32;7.15;;;16.60;99.90;;;16.95;100.00;99981.16;4994825;28;20043;-79
2023/07/23 06:16:36;;;;;;;10.07;6.80;;;16.80;99.90;;;17.13;100.00;99984.47;4988523;28;20118;-78
2023/07/23 06:19:02;;;;;;;15.07;6.82;;;17.00;99.90;;;17.42;100.00;99986.66;4984578;28;20053;-77
2023/07/23 06:21:28;;;;;;;12.52;6.47;;;17.20;99.90;;;17.54;100.00;99976.13;4981772;28;20045;-77
2023/07/23 06:23:54;;;;;;;9.85;6.25;;;17.30;99.90;;;17.44;100.00;99986.34;4989996;28;20050;-78
2023/07/23 06:26:21;;;;;;;11.55;6.18;;;17.40;99.90;;;17.78;100.00;99989.28;4986277;28;20045;-79
2023/07/23 06:28:47;;;;;;;12.40;6.00;;;17.50;99.90;;;17.64;100.00;99977.22;4974187;28;20398;-78
2023/07/23 06:31:13;;;;;;;10.13;5.93;;;17.60;99.90;;;17.39;100.00;99985.25;5002603;28;20038;-80
2023/07/23 06:33:39;;;;;;;11.20;5.93;;;17.60;99.90;;;17.25;100.00;99976.75;4990268;28;20065;-78
2023/07/23 06:36:04;;;;;;;10.63;5.97;;;17.60;99.90;;;17.28;100.00;99975.38;4982934;28;20079;-79
2023/07/23 06:38:30;;;;;;;11.25;5.60;;;17.50;99.90;;;17.53;100.00;99976.41;4989178;28;20391;-79
2023/07/23 06:40:56;;;;;;;10.73;5.55;;;17.60;99.90;;;17.80;100.00;99983.50;5004311;28;20553;-80
2023/07/23 06:43:23;;;;;;;7.70;4.70;;;17.70;99.90;;;17.78;100.00;99980.19;4977194;28;20430;-80
2023/07/23 06:45:51;;;;;;;9.30;5.55;;;17.90;99.90;;;18.02;100.00;99987.84;4998193;28;20415;-81
2023/07/23 06:48:20;;;;;;;9.10;5.40;;;18.00;99.90;;;18.28;100.00;99980.25;4989661;28;20047;-81
2023/07/23 06:50:47;;;;;;;8.27;5.30;;;18.10;99.90;;;18.28;100.00;99973.91;4989489;28;20050;-80
2023/07/23 06:53:15;;;;;;;8.07;4.70;;;18.30;99.90;;;18.53;100.00;99972.94;4985097;28;20070;-83
2023/07/23 06:56:06;;;;;;;8.57;4.95;;;18.40;99.90;;;18.65;100.00;99978.09;4987342;28;20473;-85
2023/07/23 06:58:35;;;;;;;8.45;5.18;;;18.60;99.90;;;18.52;100.00;99974.84;4986442;28;20062;-80
2023/07/23 07:01:03;;;;;;;6.72;5.00;;;18.60;99.90;;;18.59;100.00;99971.78;4987177;28;20384;-82
2023/07/23 07:03:29;;;;;;;8.52;5.07;;;18.70;99.90;;;18.74;100.00;99965.31;4989358;28;20451;-79
2023/07/23 07:05:55;;;;;;;8.65;4.90;;;18.80;99.90;;;18.66;100.00;99968.69;4981893;28;20057;-79
2023/07/23 07:08:21;;;;;;;7.57;4.63;;;18.90;99.90;;;18.98;100.00;99956.31;4984295;28;20077;-81
2023/07/23 07:10:47;;;;;;;7.95;4.40;;;;;;;19.17;100.00;99952.81;4985021;28;20061;-80
2023/07/23 07:13:13;;;;;;;8.73;4.82;;;19.10;99.90;;;19.24;100.00;99950.53;4977365;28;20045;-81
2023/07/23 07:15:44;;;;;;;7.75;4.18;;;19.40;99.90;;;19.55;100.00;99956.56;4988858;28;20089;-78
2023/07/23 07:18:09;;;;;;;8.50;4.47;;;19.60;99.90;;;19.66;100.00;99945.38;4978130;28;20034;-80
2023/07/23 07:20:35;;;;;;;8.85;4.50;;;19.70;99.90;;;19.65;100.00;99939.03;5002351;28;20084;-79
2023/07/23 07:23:01;;;;;;;7.05;4.70;;;19.90;99.90;;;19.80;100.00;99940.78;4988512;28;20038;-82
2023/07/23 07:25:26;;;;;;;5.97;3.90;;;20.00;99.90;;;20.14;100.00;99932.59;4984001;28;20047;-83
2023/07/23 07:27:52;;;;;;;8.23;4.20;;;20.20;99.90;;;20.41;100.00;99935.53;4999655;28;20026;-83
2023/07/23 07:30:18;;;;;;;7.72;4.28;;;20.50;99.90;;;20.64;100.00;99929.34;4980889;28;20505;-85
2023/07/23 07:32:43;;;;;;;6.65;4.15;;;20.60;99.90;;;20.70;100.00;99933.69;4986615;28;20470;-85
2023/07/23 07:35:09;;;;;;;6.60;3.80;;;20.80;99.90;;;20.65;100.00;99925.44;4988726;28;20392;-80
2023/07/23 07:37:35;;;;;;;7.25;4.40;;;20.90;99.90;;;20.62;100.00;99934.38;4989930;28;20027;-81
2023/07/23 07:40:01;;;;;;;7.38;4.30;;;20.80;99.90;;;20.82;100.00;99930.47;4989343;28;20034;-77
2023/07/23 07:42:26;;;;;;;6.47;4.22;;;20.90;99.90;;;20.88;100.00;99939.50;4989180;28;20046;-82
2023/07/23 07:44:52;;;;;;;7.82;4.28;;;21.00;99.90;;;21.11;100.00;99932.19;4979879;28;20486;-82
2023/07/23 07:47:18;;;;;;;7.22;4.28;;;;;;;21.11;100.00;99926.66;4990357;28;20089;-82
2023/07/23 07:49:44;;;;;;;8.18;4.13;;;;;;;21.11;100.00;99916.34;4988639;28;20125;-86
2023/07/23 07:52:11;;;;;;;8.05;4.35;;;21.10;99.90;;;21.15;100.00;99924.91;4987590;28;20033;-82
2023/07/23 07:54:37;;;;;;;6.70;3.97;;;21.30;99.90;;;21.45;100.00;99925.44;4988266;28;20086;-84
2023/07/23 07:57:04;;;;;;;7.32;4.43;;;21.50;99.90;;;21.34;100.00;99919.25;4988827;28;20470;-80
2023/07/23 07:59:30;;;;;;;6.47;4.37;;;21.60;99.90;;;21.56;100.00;99909.41;4995011;28;20035;-82
2023/07/23 08:01:57;;;;;;;8.05;4.13;;;21.70;99.90;;;21.42;100.00;99901.09;4993784;28;20089;-83
2023/07/23 08:04:23;;;;;;;6.13;4.03;;;21.60;99.90;;;21.44;100.00;99900.75;4989650;28;20401;-81
2023/07/23 08:06:51;;;;;;;8.48;4.20;;;21.60;99.90;;;21.30;100.00;99909.09;4991959;28;20034;-82
2023/07/23 08:09:20;;;;;;;6.78;3.67;;;21.40;99.90;;;21.53;100.00;99908.06;4991748;28;20490;-83
2023/07/23 08:11:47;;;;;;;8.18;4.10;;;21.60;99.90;;;21.48;100.00;99901.78;4993202;28;20097;-80
2023/07/23 08:14:14;;;;;;;6.35;4.40;;;21.60;99.90;;;21.54;100.00;99887.50;4992118;28;20518;-83
2023/07/23 08:16:40;;;;;;;7.65;4.07;;;21.70;99.90;;;21.86;100.00;99896.03;4991351;28;20030;-82
2023/07/23 08:19:08;;;;;;;6.55;3.97;;;21.90;99.90;;;21.96;100.00;99892.22;4986268;28;20042;-81
2023/07/23 08:21:34;;;;;;;6.55;4.03;;;22.00;99.90;;;22.13;100.00;99894.31;4991307;28;20080;-82
2023/07/23 08:24:01;;;;;;;6.68;3.90;;;;;;;22.40;100.00;99896.16;4979977;28;20042;-79
2023/07/23 08:26:29;;;;;;;8.50;4.07;;;;;;;22.66;100.00;99894.75;4982187;28;20487;-82
2023/07/23 08:29:01;;;;;;;9.52;3.92;;;;;;;22.76;100.00;99888.91;4986304;28;20130;-80
2023/07/23 08:31:28;;;;;;;6.63;3.45;;;;;;;22.84;100.00;99892.91;4991112;28;20045;-80
2023/07/23 08:33:56;;;;;;;7.30;4.10;;;;;;;22.93;100.00;99895.72;5005857;28;20042;-81
2023/07/23 08:36:22;;;;;;;6.22;3.65;;;;;;;23.24;100.00;99897.69;4992157;28;20045;-86
2023/07/23 08:38:49;;;;;;;5.82;3.58;;;;;;;23.24;98.05;99892.13;4985698;28;20117;-86
2023/07/23 08:41:59;;;;;;;8.48;3.85;;;;;;;23.09;93.17;99885.84;4986721;28;20134;-85
2023/07/23 08:44:53;;;;;;;7.45;3.70;;;;;;;22.88;95.14;99885.56;4981491;28;20053;-83
2023/07/23 08:47:21;;;;;;;6.18;3.55;;;;;;;22.91;94.43;99875.78;5000729;28;20061;-83
2023/07/23 08:49:51;;;;;;;7.30;3.83;;;;;;;23.24;91.88;99878.19;4985430;28;20034;-85
2023/07/23 08:52:18;;;;;;;5.30;3.70;;;;;;;23.19;89.72;99876.38;4991482;28;20078;-85
2023/07/23 08:54:45;;;;;;;6.20;3.85;;;;;;;23.21;89.54;99876.06;4981732;28;20034;-86
2023/07/23 08:57:12;;;;;;;6.07;4.18;;;;;;;23.34;88.96;99875.19;4992725;28;20050;-84
2023/07/23 08:59:39;;;;;;;7.13;3.80;;;;;;;23.15;84.81;99869.81;4991476;28;20046;-84
2023/07/23 09:02:10;;;;;;;6.78;3.55;;;;;;;22.88;86.71;99873.63;4975870;28;20045;-84
2023/07/23 09:04:36;;;;;;;5.97;3.92;;;;;;;22.69;87.18;99867.16;4987416;28;20620;-87
2023/07/23 09:07:03;;;;;;;6.93;3.70;;;;;;;23.05;92.09;99876.47;4989262;28;20050;-87
2023/07/23 09:09:29;;;;;;;5.90;3.80;;;;;;;23.28;88.83;99870.88;4993401;28;20060;-85
2023/07/23 09:11:55;;;;;;;7.20;3.20;;;;;;;23.20;86.23;99880.00;4985475;28;20854;-84
2023/07/23 09:14:21;;;;;;;5.53;3.55;;;;;;;23.35;85.50;99876.81;4990796;28;20069;-85
2023/07/23 09:16:49;;;;;;;7.47;3.72;;;;;;;23.15;84.99;99882.91;4991329;28;20034;-82
2023/07/23 09:19:24;;;;;;;8.20;3.78;;;;;;;23.32;82.10;99862.72;5000204;28;20586;-79
2023/07/23 09:21:55;;;;;;;5.70;3.20;;;;;;;23.37;78.68;99866.19;4982590;28;20816;-82
2023/07/23 09:24:21;;;;;;;6.20;3.50;;;;;;;23.41;80.15;99878.31;5002670;28;20043;-82
2023/07/23 09:26:47;;;;;;;7.78;3.70;;;;;;;23.37;81.32;99871.75;4982237;28;20475;-81
2023/07/23 09:29:14;;;;;;;6.00;3.33;;;;;;;23.38;75.81;99867.00;4984591;28;20092;-82
2023/07/23 09:31:45;;;;;;;6.50;3.63;;;;;;;23.42;72.61;99867.97;4988028;28;20062;-81
2023/07/23 09:34:11;;;;;;;8.55;3.25;;;;;;;23.57;72.95;99863.91;4984754;28;20070;-86
2023/07/23 09:36:37;;;;;;;6.18;3.53;;;;;;;23.61;74.01;99870.50;4988643;28;20519;-86
2023/07/23 09:39:05;;;;;;;4.57;2.88;;;;;;;23.73;72.78;99869.84;4981796;28;20376;-88
2023/07/23 09:41:37;;;;;;;6.35;3.42;;;;;;;23.70;69.44;99860.19;4980833;28;20044;-88
2023/07/23 09:44:09;;;;;;;6.03;3.33;;;;;;;23.95;70.46;99871.69;4986754;28;20054;-84
2023/07/23 09:46:38;;;;;;;4.68;3.00;;;;;;;23.86;68.31;99862.50;4980217;28;20128;-81
2023/07/23 09:49:04;;;;;;;6.47;3.50;;;;;;;24.01;70.58;99879.88;4985147;28;20097;-84
2023/07/23 09:51:34;;;;;;;9.00;3.35;;;;;;;24.18;68.72;99867.97;4981192;28;20038;-85
2023/07/23 09:54:01;;;;;;;4.85;3.00;;;;;;;24.10;64.70;99861.22;4984747;28;20042;-82
2023/07/23 09:56:28;;;;;;;4.30;3.10;;;;;;;24.16;64.25;99859.09;4981957;28;20479;-83
2023/07/23 09:58:54;;;;;;;4.78;2.70;;;;;;;24.19;59.44;99847.31;4983740;28;20035;-84
2023/07/23 10:01:20;;;;;;;7.53;3.20;;;;;;;24.37;59.97;99843.38;4984722;28;20088;-85
2023/07/23 10:03:49;;;;;;;7.80;3.17;;;;;;;23.96;56.28;99831.56;4979985;28;20046;-81
2023/07/23 10:06:20;;;;;;;5.15;3.17;;;;;;;24.27;57.20;99858.44;5001706;28;20383;-83
2023/07/23 10:08:47;;;;;;;5.43;2.72;;;;;;;24.19;58.65;99848.13;4981157;28;20038;-82
2023/07/23 10:11:15;;;;;;;5.07;2.70;;;;;;;23.93;55.33;99835.00;4980402;28;20041;-84
2023/07/23 10:13:41;;;;;;;;;;;;;;;23.84;57.67;99845.28;4984964;28;20117;-84
2023/07/23 10:16:26;;;;;;;5.25;2.70;;;;;;;23.87;54.96;99849.41;4980824;28;19961;-84